Time;durP1;ratioP1;P1;durP2;ratioP2;P2;SDS_P1;SDS_P2;PMS_P1;PMS_P2;Temp;Humidity;BMP_temperature;BMP_pressure;BME280_temperature;BME280_humidity;BME280_pressure;Samples;Min_cycle;Max_cycle;Signal;HPM_P1;HPM_P2
2021/11/07 00:05:03;;;;;;;20.40;13.65;;;11.70;92.70;;;;;;5045216;28;20187;-74
2021/11/07 00:07:46;;;;;;;20.50;13.55;;;11.70;93.10;;;;;;5045556;28;20218;-72
2021/11/07 00:10:22;;;;;;;23.17;13.52;;;11.60;93.20;;;;;;5045441;28;20199;-72
2021/11/07 00:12:49;;;;;;;20.80;12.98;;;11.70;93.10;;;;;;5044476;28;20190;-72
2021/11/07 00:15:18;;;;;;;21.83;12.90;;;11.70;93.10;;;;;;5042882;28;20191;-72
2021/11/07 00:17:51;;;;;;;23.90;12.73;;;11.70;93.00;;;;;;5043049;28;20338;-73
2021/11/07 00:20:24;;;;;;;22.58;12.60;;;11.70;92.80;;;;;;5043366;28;20198;-73
2021/11/07 00:22:58;;;;;;;21.45;11.02;;;11.70;92.80;;;;;;5045987;28;20180;-72
2021/11/07 00:25:39;;;;;;;18.60;11.70;;;11.80;92.70;;;;;;5041793;28;20252;-72
2021/11/07 00:28:09;;;;;;;23.02;12.07;;;11.80;92.60;;;;;;5043132;28;20184;-73
2021/11/07 00:33:38;;;;;;;18.25;11.90;;;11.80;92.60;;;;;;5001897;28;20294;-75
2021/11/07 00:38:42;;;;;;;28.13;13.23;;;11.80;92.50;;;;;;5001278;28;20201;-73
2021/11/07 00:46:46;;;;;;;20.42;12.20;;;11.70;92.80;;;;;;4941838;28;20290;-73
2021/11/07 00:49:22;;;;;;;24.83;13.90;;;11.70;93.30;;;;;;4944100;29;20179;-73
2021/11/07 00:57:02;;;;;;;20.00;12.38;;;11.60;93.10;;;;;;4943600;28;20246;-73
2021/11/07 01:02:11;;;;;;;17.60;10.75;;;11.70;93.20;;;;;;4943985;29;20676;-73
2021/11/07 01:04:37;;;;;;;17.45;10.52;;;11.70;92.80;;;;;;4946931;28;20697;-73
2021/11/07 01:07:04;;;;;;;18.83;10.77;;;11.70;93.40;;;;;;4943915;28;20202;-73
2021/11/07 01:09:30;;;;;;;17.40;11.27;;;11.70;93.30;;;;;;4944594;28;20676;-73
2021/11/07 01:11:55;;;;;;;23.27;11.65;;;11.70;93.30;;;;;;4979572;28;20185;-74
2021/11/07 01:14:21;;;;;;;24.23;13.52;;;11.70;93.30;;;;;;4978145;28;20804;-72
2021/11/07 01:16:47;;;;;;;18.90;12.55;;;11.60;93.30;;;;;;4976714;28;20905;-73
2021/11/07 01:19:13;;;;;;;17.67;11.30;;;11.70;93.30;;;;;;4978996;28;20227;-72
2021/11/07 01:21:42;;;;;;;19.73;11.43;;;11.70;93.60;;;;;;4982662;28;20410;-72
2021/11/07 01:24:18;;;;;;;21.63;12.60;;;11.70;93.30;;;;;;5022079;28;20275;-72
2021/11/07 01:26:47;;;;;;;19.52;12.05;;;11.70;93.10;;;;;;5042501;28;20179;-72
2021/11/07 01:29:16;;;;;;;19.83;12.07;;;11.70;93.20;;;;;;5042272;28;20195;-74
2021/11/07 01:31:44;;;;;;;19.88;12.02;;;11.70;93.00;;;;;;5042588;28;20302;-74
2021/11/07 01:34:21;;;;;;;23.90;13.23;;;11.70;93.00;;;;;;5042790;28;20215;-74
2021/11/07 01:36:51;;;;;;;25.00;13.60;;;11.70;93.00;;;;;;5043802;28;20665;-72
2021/11/07 01:39:22;;;;;;;22.60;13.88;;;11.70;93.00;;;;;;5043793;28;20313;-74
2021/11/07 01:44:22;;;;;;;29.40;14.50;;;11.70;93.10;;;;;;5046384;28;20180;-74
2021/11/07 01:46:51;;;;;;;27.48;13.77;;;11.70;93.40;;;;;;5038858;28;20194;-74
2021/11/07 01:49:22;;;;;;;24.42;14.65;;;11.70;93.20;;;;;;5043094;28;20187;-74
2021/11/07 01:51:51;;;;;;;29.08;14.82;;;11.70;93.30;;;;;;5042954;28;20184;-74
2021/11/07 01:54:26;;;;;;;28.23;14.60;;;11.70;93.30;;;;;;5041615;28;20181;-74
2021/11/07 01:56:52;;;;;;;24.48;15.15;;;11.70;93.10;;;;;;5046972;28;20230;-74
2021/11/07 01:59:18;;;;;;;25.98;14.85;;;11.70;93.30;;;;;;5048965;28;20183;-74
2021/11/07 02:01:50;;;;;;;32.35;16.52;;;11.70;93.40;;;;;;5047351;28;20275;-74
2021/11/07 02:04:16;;;;;;;28.30;15.25;;;11.70;93.90;;;;;;5048673;28;20191;-73
2021/11/07 02:06:41;;;;;;;29.52;16.30;;;11.70;93.90;;;;;;5048584;28;20198;-73
2021/11/07 02:09:07;;;;;;;27.90;17.23;;;11.70;93.60;;;;;;5046130;28;20195;-73
2021/11/07 02:11:33;;;;;;;25.65;15.75;;;11.70;93.60;;;;;;5048570;28;20179;-73
2021/11/07 02:14:00;;;;;;;23.52;15.13;;;11.70;93.60;;;;;;5049452;28;20237;-73
2021/11/07 02:16:26;;;;;;;27.98;15.05;;;11.60;93.80;;;;;;5043815;28;20632;-73
2021/11/07 02:18:52;;;;;;;24.42;14.00;;;11.70;93.90;;;;;;5046402;28;20183;-73
2021/11/07 02:21:17;;;;;;;25.00;13.73;;;11.60;94.00;;;;;;5047324;28;20176;-73
2021/11/07 02:23:43;;;;;;;23.17;14.13;;;11.60;93.90;;;;;;5046281;28;20218;-73
2021/11/07 02:26:09;;;;;;;24.95;14.30;;;11.60;93.90;;;;;;5045971;28;20184;-73
2021/11/07 02:28:44;;;;;;;19.60;12.77;;;11.60;94.10;;;;;;5047024;28;20203;-73
2021/11/07 02:31:13;;;;;;;29.10;13.70;;;11.60;93.80;;;;;;5047399;28;20221;-73
2021/11/07 02:33:39;;;;;;;20.38;12.77;;;11.70;93.90;;;;;;5049153;28;20221;-73
2021/11/07 02:36:19;;;;;;;20.10;11.38;;;11.70;94.10;;;;;;5046077;28;20220;-73
2021/11/07 02:38:48;;;;;;;18.40;11.55;;;11.70;93.80;;;;;;5047612;28;20179;-73
2021/11/07 02:41:15;;;;;;;20.65;12.75;;;11.70;93.90;;;;;;5043130;28;20202;-73
2021/11/07 02:43:44;;;;;;;18.45;12.32;;;11.70;93.90;;;;;;5046436;28;20226;-73
2021/11/07 02:46:17;;;;;;;19.88;12.23;;;11.70;93.90;;;;;;5045037;28;20673;-73
2021/11/07 02:48:54;;;;;;;23.05;13.52;;;11.70;94.00;;;;;;5046398;28;20952;-73
2021/11/07 02:51:37;;;;;;;18.30;12.52;;;11.70;93.60;;;;;;5047829;28;20214;-73
2021/11/07 02:54:08;;;;;;;22.52;11.90;;;11.70;93.80;;;;;;5046189;28;20283;-73
2021/11/07 02:56:34;;;;;;;20.08;10.73;;;11.70;94.00;;;;;;5044056;28;20302;-73
2021/11/07 02:59:01;;;;;;;17.20;11.18;;;11.70;94.10;;;;;;5048218;28;20176;-73
2021/11/07 03:01:28;;;;;;;15.23;11.20;;;11.70;94.10;;;;;;5045056;28;20636;-73
2021/11/07 03:04:01;;;;;;;21.92;11.68;;;11.70;94.00;;;;;;5046832;28;20195;-73
2021/11/07 03:06:31;;;;;;;26.52;12.55;;;11.70;94.10;;;;;;5043475;28;20218;-73
2021/11/07 03:08:57;;;;;;;23.17;12.95;;;11.70;93.90;;;;;;5044863;28;20266;-73
2021/11/07 03:11:23;;;;;;;17.88;10.85;;;11.70;94.10;;;;;;5047391;28;20186;-73
2021/11/07 03:13:50;;;;;;;21.77;11.13;;;11.60;94.30;;;;;;5046311;28;20179;-73
2021/11/07 03:16:16;;;;;;;20.20;10.68;;;11.60;94.40;;;;;;5043079;28;20224;-73
2021/11/07 03:18:42;;;;;;;17.02;10.70;;;11.60;94.40;;;;;;5045266;28;20195;-73
2021/11/07 03:21:14;;;;;;;18.00;10.18;;;11.60;94.40;;;;;;5045601;28;20203;-73
2021/11/07 03:23:49;;;;;;;15.98;10.63;;;11.60;94.30;;;;;;5045926;28;20187;-73
2021/11/07 03:26:16;;;;;;;16.63;10.30;;;11.50;94.20;;;;;;5044703;28;20205;-73
2021/11/07 03:28:43;;;;;;;17.27;11.00;;;11.50;94.50;;;;;;5042375;28;20183;-73
2021/11/07 03:34:05;;;;;;;13.70;10.18;;;11.60;94.50;;;;;;5022210;28;20872;-73
2021/11/07 03:36:49;;;;;;;16.58;8.98;;;11.60;94.40;;;;;;5023540;28;20220;-73
2021/11/07 03:39:16;;;;;;;16.20;9.18;;;11.60;94.40;;;;;;5005002;28;20282;-73
2021/11/07 03:41:43;;;;;;;14.95;9.57;;;11.60;94.40;;;;;;5023832;28;20188;-73
2021/11/07 03:44:09;;;;;;;18.55;9.68;;;11.60;94.40;;;;;;5022702;28;20188;-74
2021/11/07 03:46:36;;;;;;;13.57;9.05;;;11.60;94.60;;;;;;5016707;28;20188;-74
2021/11/07 03:49:04;;;;;;;15.88;8.25;;;11.60;94.60;;;;;;5021203;28;20181;-73
2021/11/07 03:51:30;;;;;;;15.95;10.02;;;11.60;94.40;;;;;;5001506;28;20220;-72
2021/11/07 03:53:58;;;;;;;12.95;8.40;;;11.60;94.30;;;;;;5006779;28;20178;-72
2021/11/07 03:56:25;;;;;;;13.10;8.65;;;11.60;94.40;;;;;;4999746;28;20275;-73
2021/11/07 03:58:51;;;;;;;15.90;8.18;;;11.60;94.50;;;;;;5005880;28;20279;-72
2021/11/07 04:01:18;;;;;;;13.13;8.88;;;11.60;94.50;;;;;;5022862;28;20597;-73
2021/11/07 04:03:44;;;;;;;12.82;8.90;;;11.60;94.60;;;;;;4998618;28;20193;-73
2021/11/07 04:06:12;;;;;;;15.88;8.88;;;11.60;94.50;;;;;;5022359;28;20196;-73
2021/11/07 04:08:38;;;;;;;18.52;9.75;;;11.70;94.60;;;;;;5008290;28;20552;-73
2021/11/07 04:11:04;;;;;;;13.05;8.77;;;11.70;94.40;;;;;;5035903;28;20196;-73
2021/11/07 04:13:31;;;;;;;13.52;8.70;;;11.70;94.40;;;;;;5045276;28;20195;-73
2021/11/07 04:15:57;;;;;;;15.38;9.05;;;11.70;94.40;;;;;;5042114;28;20208;-73
2021/11/07 04:18:23;;;;;;;16.13;9.18;;;11.70;94.40;;;;;;5042961;28;20806;-72
2021/11/07 04:20:49;;;;;;;14.63;9.38;;;11.70;94.30;;;;;;5042889;28;20188;-73
2021/11/07 04:23:15;;;;;;;18.77;10.20;;;11.70;94.40;;;;;;5045367;28;20223;-73
2021/11/07 04:25:41;;;;;;;16.67;9.27;;;11.70;94.90;;;;;;5043673;28;20559;-73
2021/11/07 04:28:07;;;;;;;16.52;8.88;;;11.60;94.60;;;;;;5043148;28;20182;-72
2021/11/07 04:30:34;;;;;;;16.10;9.50;;;11.60;94.70;;;;;;5044187;28;20193;-73
2021/11/07 04:33:01;;;;;;;11.50;8.65;;;11.60;94.50;;;;;;5044282;28;22185;-73
2021/11/07 04:35:28;;;;;;;16.95;9.95;;;11.60;94.40;;;;;;5044397;28;20293;-73
2021/11/07 04:37:56;;;;;;;12.75;8.35;;;11.50;94.50;;;;;;5044692;28;20221;-73
2021/11/07 04:40:24;;;;;;;14.07;8.43;;;11.50;94.40;;;;;;5042664;28;20179;-73
2021/11/07 04:42:51;;;;;;;13.48;8.80;;;11.50;94.50;;;;;;5044207;28;20215;-73
2021/11/07 04:45:17;;;;;;;14.63;8.38;;;11.50;94.40;;;;;;5042309;28;20739;-73
2021/11/07 04:47:44;;;;;;;13.98;9.60;;;11.60;94.40;;;;;;5044034;28;20257;-74
2021/11/07 04:50:12;;;;;;;10.50;8.13;;;11.50;94.30;;;;;;5044563;28;20185;-75
2021/11/07 04:52:39;;;;;;;13.57;8.88;;;11.60;94.60;;;;;;5044254;28;20187;-74
2021/11/07 04:55:06;;;;;;;13.35;9.00;;;11.50;94.60;;;;;;5042768;28;20199;-74
2021/11/07 04:57:31;;;;;;;15.52;9.98;;;11.50;94.80;;;;;;5043356;28;20215;-74
2021/11/07 04:59:57;;;;;;;17.90;9.85;;;11.50;95.00;;;;;;5044130;28;20724;-74
2021/11/07 05:02:23;;;;;;;14.57;9.48;;;11.40;95.50;;;;;;5044172;28;20208;-74
2021/11/07 05:04:53;;;;;;;13.60;8.63;;;11.40;95.40;;;;;;5043106;28;20187;-74
2021/11/07 05:07:19;;;;;;;15.80;9.52;;;11.40;95.40;;;;;;5041565;28;20275;-74
2021/11/07 05:09:45;;;;;;;17.15;10.35;;;11.40;95.70;;;;;;5045198;28;20250;-74
2021/11/07 05:12:11;;;;;;;13.25;8.45;;;11.40;96.00;;;;;;5041495;28;20187;-73
2021/11/07 05:14:36;;;;;;;16.50;8.77;;;11.40;95.90;;;;;;5041777;28;20321;-74
2021/11/07 05:17:03;;;;;;;13.88;9.07;;;11.40;95.70;;;;;;5043324;28;20215;-74
2021/11/07 05:19:29;;;;;;;15.23;9.32;;;11.40;95.60;;;;;;5044072;28;20171;-74
2021/11/07 05:21:55;;;;;;;18.75;9.20;;;11.40;95.70;;;;;;5042964;28;20211;-74
2021/11/07 05:24:21;;;;;;;15.48;9.05;;;11.30;95.90;;;;;;5042737;28;20267;-74
2021/11/07 05:26:47;;;;;;;14.07;8.95;;;11.30;95.80;;;;;;5042289;28;20676;-73
2021/11/07 05:29:13;;;;;;;17.60;9.68;;;11.40;95.80;;;;;;5045596;28;20180;-74
2021/11/07 05:31:39;;;;;;;14.88;9.57;;;11.40;95.80;;;;;;5047957;28;20270;-74
2021/11/07 05:34:05;;;;;;;12.32;9.07;;;11.40;95.80;;;;;;5045072;28;20868;-74
2021/11/07 05:36:33;;;;;;;15.75;9.85;;;11.40;95.70;;;;;;5047435;28;20214;-73
2021/11/07 05:38:59;;;;;;;16.65;9.32;;;11.40;95.60;;;;;;5045503;28;20180;-74
2021/11/07 05:41:25;;;;;;;17.67;9.65;;;11.40;95.60;;;;;;5047195;28;20191;-74
2021/11/07 05:43:50;;;;;;;14.07;9.45;;;11.50;95.70;;;;;;5046888;28;20188;-74
2021/11/07 05:46:17;;;;;;;14.93;9.02;;;11.50;95.60;;;;;;5046473;28;20321;-74
2021/11/07 05:48:42;;;;;;;14.63;9.05;;;11.60;95.50;;;;;;5048782;28;20175;-74
2021/11/07 05:51:08;;;;;;;12.15;8.93;;;11.60;95.50;;;;;;5047023;28;20180;-74
2021/11/07 05:53:34;;;;;;;12.27;8.95;;;11.60;95.40;;;;;;5047077;28;20183;-74
2021/11/07 05:56:00;;;;;;;10.23;7.65;;;11.70;95.40;;;;;;5045412;28;20790;-74
2021/11/07 05:58:27;;;;;;;15.95;9.45;;;11.70;95.40;;;;;;5046639;28;20180;-74
2021/11/07 06:00:53;;;;;;;16.20;9.38;;;11.70;95.30;;;;;;5044171;28;20180;-73
2021/11/07 06:03:20;;;;;;;15.05;8.98;;;11.80;95.30;;;;;;5044478;28;20334;-74
2021/11/07 06:05:46;;;;;;;11.65;8.48;;;11.80;95.20;;;;;;5047452;28;20187;-73
2021/11/07 06:08:13;;;;;;;16.40;8.98;;;11.80;95.20;;;;;;5048345;28;20649;-73
2021/11/07 06:10:40;;;;;;;16.42;9.15;;;11.90;95.70;;;;;;5046371;28;20198;-73
2021/11/07 06:13:06;;;;;;;19.35;9.68;;;11.90;95.40;;;;;;5048632;28;20176;-73
2021/11/07 06:15:32;;;;;;;15.82;10.32;;;12.00;95.30;;;;;;5046112;28;20184;-73
2021/11/07 06:17:58;;;;;;;18.27;9.15;;;12.00;95.40;;;;;;5048176;28;20207;-73
2021/11/07 06:20:24;;;;;;;17.70;10.48;;;12.10;95.30;;;;;;5049719;28;20664;-73
2021/11/07 06:22:50;;;;;;;14.10;9.88;;;12.10;95.50;;;;;;5047456;28;20191;-73
2021/11/07 06:25:16;;;;;;;15.85;10.07;;;12.20;95.40;;;;;;5048832;28;20664;-74
2021/11/07 06:27:42;;;;;;;19.92;12.00;;;12.20;95.30;;;;;;5045940;28;20186;-73
2021/11/07 06:30:09;;;;;;;15.77;11.35;;;12.30;95.20;;;;;;5047707;28;20269;-73
2021/11/07 06:32:36;;;;;;;16.63;11.40;;;12.40;95.40;;;;;;5046954;28;20188;-73
2021/11/07 06:35:05;;;;;;;20.45;11.15;;;12.40;95.00;;;;;;5046606;28;20203;-73
2021/11/07 06:37:31;;;;;;;19.88;12.30;;;12.50;94.90;;;;;;5046198;28;20212;-73
2021/11/07 06:39:57;;;;;;;19.88;11.52;;;12.60;95.30;;;;;;5048827;28;20182;-73
2021/11/07 06:42:24;;;;;;;24.02;13.45;;;12.70;95.40;;;;;;5045244;28;20184;-72
2021/11/07 06:44:50;;;;;;;22.92;11.25;;;12.90;95.00;;;;;;5049494;28;20184;-73
2021/11/07 06:47:16;;;;;;;22.85;12.05;;;13.10;94.60;;;;;;5046743;28;20204;-73
2021/11/07 06:49:42;;;;;;;17.25;12.35;;;13.30;94.30;;;;;;5046995;28;20210;-73
2021/11/07 06:52:08;;;;;;;17.73;11.57;;;13.40;93.60;;;;;;5048844;28;21022;-74
2021/11/07 06:54:34;;;;;;;24.92;12.43;;;13.50;93.70;;;;;;5045674;28;20191;-73
2021/11/07 06:57:00;;;;;;;23.48;12.73;;;13.70;93.60;;;;;;5047821;28;20322;-71
2021/11/07 06:59:27;;;;;;;23.98;13.52;;;14.00;93.10;;;;;;5045738;28;20701;-72
2021/11/07 07:01:54;;;;;;;27.88;13.70;;;14.20;92.10;;;;;;5044698;28;20183;-73
2021/11/07 07:04:20;;;;;;;21.15;13.60;;;14.30;91.50;;;;;;5044698;28;20195;-73
2021/11/07 07:06:46;;;;;;;29.20;15.05;;;14.40;90.90;;;;;;5046637;28;20184;-73
2021/11/07 07:09:17;;;;;;;29.35;15.35;;;14.50;90.80;;;;;;5046664;28;20657;-73
2021/11/07 07:11:48;;;;;;;21.20;14.73;;;14.60;90.60;;;;;;5046358;28;20248;-72
2021/11/07 07:19:37;;;;;;;21.77;14.18;;;15.20;89.40;;;;;;5047852;28;20574;-72
2021/11/07 07:24:57;;;;;;;27.15;14.48;;;15.50;88.50;;;;;;5046708;28;20198;-73
2021/11/07 07:35:01;;;;;;;25.17;15.07;;;15.90;87.80;;;;;;5045540;28;20195;-73
2021/11/07 07:37:27;;;;;;;24.10;13.60;;;16.10;87.20;;;;;;5044502;28;20219;-72
2021/11/07 07:39:53;;;;;;;21.40;14.65;;;16.30;86.60;;;;;;5045326;28;20810;-72
2021/11/07 07:42:19;;;;;;;26.75;15.68;;;16.40;86.40;;;;;;5047102;28;20279;-73
2021/11/07 07:44:48;;;;;;;22.42;14.18;;;16.40;85.80;;;;;;5046501;28;20199;-73
2021/11/07 07:47:14;;;;;;;20.73;13.52;;;16.50;85.90;;;;;;5045533;28;20188;-73
2021/11/07 07:49:41;;;;;;;27.38;14.05;;;16.50;85.60;;;;;;5048121;28;20918;-74
2021/11/07 07:52:07;;;;;;;21.48;13.90;;;16.60;85.60;;;;;;5040836;28;20555;-74
2021/11/07 07:54:33;;;;;;;24.05;14.10;;;16.60;85.40;;;;;;5044518;28;20194;-74
2021/11/07 07:56:58;;;;;;;21.08;14.15;;;16.60;85.30;;;;;;5044747;28;20217;-74
2021/11/07 07:59:25;;;;;;;18.40;13.00;;;16.60;84.50;;;;;;5044891;28;20662;-74
2021/11/07 08:01:52;;;;;;;23.10;13.75;;;16.60;85.00;;;;;;5044455;28;20191;-73
2021/11/07 08:04:18;;;;;;;17.70;12.70;;;16.60;85.00;;;;;;5043410;28;20188;-75
2021/11/07 08:06:44;;;;;;;24.77;14.82;;;16.60;85.00;;;;;;5044907;28;20176;-75
2021/11/07 08:09:10;;;;;;;22.42;13.95;;;16.60;84.90;;;;;;5045102;28;20856;-74
2021/11/07 08:11:38;;;;;;;26.38;15.50;;;16.50;84.90;;;;;;5045009;28;20195;-75
2021/11/07 08:14:04;;;;;;;26.58;14.98;;;16.50;84.80;;;;;;5046389;28;20186;-76
2021/11/07 08:16:31;;;;;;;25.73;14.27;;;16.40;85.20;;;;;;5043863;28;20219;-74
2021/11/07 08:18:57;;;;;;;28.45;14.23;;;16.50;85.20;;;;;;5045334;28;20190;-74
2021/11/07 08:21:26;;;;;;;24.00;14.52;;;16.60;85.50;;;;;;5044639;28;20176;-74
2021/11/07 08:23:54;;;;;;;28.60;17.77;;;16.60;85.10;;;;;;5044697;28;20241;-73
2021/11/07 08:26:21;;;;;;;24.25;15.95;;;16.60;85.00;;;;;;5041715;28;20272;-75
2021/11/07 08:28:47;;;;;;;22.55;15.00;;;16.80;85.30;;;;;;5043591;28;20186;-75
2021/11/07 08:31:21;;;;;;;24.02;14.13;;;17.10;85.00;;;;;;5041925;28;20179;-78
2021/11/07 08:33:47;;;;;;;19.45;13.70;;;17.20;84.40;;;;;;5044012;28;20210;-77
2021/11/07 08:36:19;;;;;;;23.80;14.82;;;17.30;84.20;;;;;;5045414;28;20211;-76
2021/11/07 08:38:52;;;;;;;29.05;14.45;;;17.50;84.10;;;;;;5044117;28;20269;-76
2021/11/07 08:41:20;;;;;;;26.63;14.95;;;17.60;83.60;;;;;;5043329;28;20187;-76
2021/11/07 09:00:32;;;;;;;24.58;12.88;;;18.50;82.70;;;;;;4982365;28;20216;-80
2021/11/07 09:03:18;;;;;;;19.58;12.80;;;18.90;81.90;;;;;;4982241;28;20283;-79
2021/11/07 09:06:24;;;;;;;20.45;12.43;;;19.50;81.20;;;;;;4972212;28;20201;-77
2021/11/07 09:08:50;;;;;;;18.00;12.13;;;20.20;80.30;;;;;;4983499;28;20192;-82
2021/11/07 09:11:20;;;;;;;14.43;10.88;;;21.20;78.90;;;;;;4983681;28;20231;-80
2021/11/07 09:13:47;;;;;;;19.08;10.73;;;22.00;76.90;;;;;;4983152;28;20647;-79
2021/11/07 09:16:14;;;;;;;15.10;10.23;;;22.50;75.30;;;;;;4970898;28;20228;-77
2021/11/07 09:18:41;;;;;;;15.13;10.43;;;22.90;73.00;;;;;;4983110;28;20728;-77
2021/11/07 09:21:21;;;;;;;13.77;10.00;;;23.20;71.30;;;;;;4983840;28;20212;-76
2021/11/07 09:23:53;;;;;;;12.32;9.95;;;23.50;71.80;;;;;;4973399;28;20301;-77
2021/11/07 09:29:02;;;;;;;12.70;10.25;;;24.30;71.70;;;;;;5002525;28;20590;-76
2021/11/07 09:31:44;;;;;;;15.18;10.52;;;24.60;70.50;;;;;;5041617;28;20318;-76
2021/11/07 09:34:23;;;;;;;13.30;10.65;;;24.40;68.70;;;;;;5042076;28;20711;-76
2021/11/07 09:37:14;;;;;;;13.57;9.40;;;24.30;69.10;;;;;;5043692;28;20238;-72
2021/11/07 09:39:48;;;;;;;15.57;9.77;;;24.60;69.80;;;;;;5044221;28;20190;-76
2021/11/07 09:42:34;;;;;;;15.88;9.98;;;25.20;69.40;;;;;;5045742;28;20176;-77
2021/11/07 09:45:10;;;;;;;14.63;9.82;;;25.90;68.40;;;;;;5043447;28;20303;-76
2021/11/07 09:47:40;;;;;;;12.80;9.75;;;26.70;67.60;;;;;;5044684;28;20179;-77
2021/11/07 09:50:10;;;;;;;17.50;9.80;;;27.40;65.20;;;;;;5043548;28;20705;-77
2021/11/07 09:52:44;;;;;;;16.50;10.68;;;27.90;64.30;;;;;;5045830;28;20950;-77
2021/11/07 09:55:09;;;;;;;14.07;9.27;;;28.40;63.70;;;;;;5044292;28;20179;-76
2021/11/07 09:57:37;;;;;;;11.48;10.20;;;28.90;64.10;;;;;;5044367;28;20589;-78
2021/11/07 10:00:09;;;;;;;12.85;10.05;;;29.40;62.20;;;;;;5045456;28;20565;-76
2021/11/07 10:02:35;;;;;;;15.00;9.90;;;30.00;62.10;;;;;;5044680;28;20190;-77
2021/11/07 10:05:02;;;;;;;13.25;10.52;;;30.50;61.20;;;;;;5043507;28;20176;-76
2021/11/07 10:07:34;;;;;;;15.23;10.48;;;30.70;57.80;;;;;;5042665;28;20986;-77
2021/11/07 10:10:14;;;;;;;12.60;10.93;;;30.40;59.50;;;;;;5043557;28;20179;-77
2021/11/07 10:12:48;;;;;;;18.40;11.27;;;30.50;57.50;;;;;;5043592;28;20243;-77
2021/11/07 10:15:40;;;;;;;15.68;10.60;;;30.10;59.10;;;;;;5042474;28;20294;-77
2021/11/07 10:18:13;;;;;;;13.48;10.15;;;30.10;59.10;;;;;;5044056;28;20207;-77
2021/11/07 10:20:44;;;;;;;12.23;10.77;;;30.50;58.30;;;;;;5044984;28;20187;-76
2021/11/07 10:23:16;;;;;;;11.48;10.18;;;30.60;57.70;;;;;;5043613;28;20413;-76
2021/11/07 10:25:52;;;;;;;11.93;10.32;;;31.00;58.00;;;;;;5045193;28;20302;-81
2021/11/07 10:28:30;;;;;;;12.10;10.30;;;31.00;57.10;;;;;;5045500;28;20229;-76
2021/11/07 10:31:13;;;;;;;13.30;10.90;;;31.00;56.70;;;;;;5045329;28;20680;-79
2021/11/07 10:52:44;;;;;;;13.57;9.43;;;31.40;57.20;;;;;;5047141;28;20186;-75
2021/11/07 10:55:20;;;;;;;12.55;10.10;;;31.70;56.90;;;;;;5047595;28;20179;-74
2021/11/07 10:58:00;;;;;;;10.75;9.43;;;32.00;55.70;;;;;;5047991;28;20217;-75
2021/11/07 11:00:42;;;;;;;11.43;10.25;;;32.00;55.40;;;;;;5046671;28;20183;-74
2021/11/07 11:03:18;;;;;;;11.90;9.75;;;31.90;55.20;;;;;;5046411;28;20573;-75
2021/11/07 11:06:06;;;;;;;9.98;8.95;;;31.80;55.90;;;;;;5048418;28;20187;-75
2021/11/07 11:08:43;;;;;;;9.75;8.75;;;31.80;55.80;;;;;;5048111;28;20186;-75
2021/11/07 11:16:52;;;;;;;8.88;8.02;;;32.60;55.60;;;;;;5004568;28;20278;-75
2021/11/07 11:25:15;;;;;;;13.35;9.13;;;33.50;53.40;;;;;;5004948;28;20191;-76
2021/11/07 11:30:50;;;;;;;11.43;9.45;;;33.40;53.50;;;;;;5005261;28;20195;-76
2021/11/07 11:38:43;;;;;;;9.80;8.75;;;33.20;54.10;;;;;;5004550;28;20686;-76
2021/11/07 11:41:14;;;;;;;9.70;8.88;;;32.80;54.00;;;;;;5004008;28;20188;-76
2021/11/07 11:43:44;;;;;;;14.95;9.35;;;32.50;53.90;;;;;;5002953;28;20180;-76
2021/11/07 11:46:51;;;;;;;15.73;9.63;;;32.50;54.70;;;;;;5002453;28;20196;-74
2021/11/07 11:57:39;;;;;;;15.55;9.60;;;29.80;57.90;;;;;;5044605;28;20215;-76
2021/11/07 12:00:42;;;;;;;12.55;10.15;;;29.40;58.40;;;;;;5045367;28;20199;-77
2021/11/07 12:03:26;;;;;;;15.63;8.80;;;28.90;58.50;;;;;;5043216;28;20194;-77
2021/11/07 12:06:09;;;;;;;9.15;8.30;;;28.50;59.70;;;;;;5040814;28;20199;-78
2021/11/07 12:08:57;;;;;;;9.85;8.35;;;28.00;60.20;;;;;;5046092;28;20179;-76
2021/11/07 12:11:45;;;;;;;10.60;8.98;;;27.60;60.50;;;;;;5046113;28;20191;-77
2021/11/07 12:14:14;;;;;;;10.35;8.00;;;27.40;61.20;;;;;;5044494;28;20184;-77
2021/11/07 12:16:59;;;;;;;9.07;8.13;;;27.60;61.20;;;;;;5045373;28;20195;-77
2021/11/07 12:19:42;;;;;;;12.48;8.45;;;27.90;60.70;;;;;;5043641;28;20191;-77
2021/11/07 12:22:15;;;;;;;12.60;8.73;;;28.20;60.00;;;;;;5046666;28;20193;-79
2021/11/07 12:24:47;;;;;;;9.82;8.02;;;28.50;59.70;;;;;;5043507;28;20680;-79
2021/11/07 12:27:42;;;;;;;11.10;8.85;;;28.80;59.50;;;;;;5045585;28;20248;-80
2021/11/07 12:30:10;;;;;;;10.35;8.88;;;28.90;58.00;;;;;;5045409;28;20172;-80
2021/11/07 12:32:39;;;;;;;9.32;8.40;;;28.60;58.10;;;;;;5045702;28;20258;-80
2021/11/07 12:35:41;;;;;;;13.73;9.10;;;28.30;58.80;;;;;;5045624;28;20183;-82
2021/11/07 12:41:13;;;;;;;10.88;9.60;;;28.00;60.10;;;;;;5053520;28;20723;-77
2021/11/07 12:44:06;;;;;;;10.20;9.38;;;28.20;60.20;;;;;;5055760;28;20186;-78
2021/11/07 12:46:51;;;;;;;9.38;8.45;;;28.60;60.00;;;;;;5046398;28;20202;-74
2021/11/07 12:49:16;;;;;;;10.10;9.02;;;29.00;59.10;;;;;;5044751;28;20601;-76
2021/11/07 12:51:58;;;;;;;14.98;9.15;;;29.20;57.80;;;;;;5044555;28;20192;-78
2021/11/07 12:54:30;;;;;;;13.25;9.75;;;29.10;58.90;;;;;;5045734;28;20215;-77
2021/11/07 12:56:58;;;;;;;13.38;8.60;;;29.10;58.00;;;;;;5045663;28;20213;-77
2021/11/07 12:59:26;;;;;;;10.55;8.80;;;28.80;59.20;;;;;;5045901;28;20222;-78
2021/11/07 13:02:02;;;;;;;9.63;8.65;;;28.50;59.30;;;;;;5045982;28;20278;-77
2021/11/07 13:05:01;;;;;;;10.85;9.45;;;28.10;60.10;;;;;;5044439;28;20272;-77
2021/11/07 13:07:45;;;;;;;9.75;8.68;;;27.80;60.20;;;;;;5020186;28;20701;-76
2021/11/07 13:10:36;;;;;;;11.02;9.00;;;27.70;61.00;;;;;;5020855;28;20175;-77
2021/11/07 13:13:07;;;;;;;10.15;8.48;;;27.80;61.40;;;;;;5017185;28;20201;-77
2021/11/07 13:32:41;;;;;;;9.40;7.88;;;27.60;60.60;;;;;;4951906;28;20194;-77
2021/11/07 13:35:16;;;;;;;8.70;7.93;;;27.60;61.00;;;;;;4954920;28;20224;-77
2021/11/07 13:38:05;;;;;;;9.25;8.30;;;27.60;60.90;;;;;;4959931;28;20221;-76
2021/11/07 13:40:35;;;;;;;10.68;7.60;;;27.50;60.70;;;;;;4950986;28;20314;-77
2021/11/07 13:43:26;;;;;;;9.48;8.38;;;27.50;61.20;;;;;;4927330;29;20196;-77
2021/11/07 13:45:54;;;;;;;9.82;8.50;;;27.50;61.10;;;;;;4943310;28;20332;-76
2021/11/07 13:48:29;;;;;;;9.27;8.18;;;27.40;61.20;;;;;;4944682;28;20222;-78
2021/11/07 13:50:56;;;;;;;8.98;8.02;;;27.30;61.40;;;;;;4947040;28;20205;-78
2021/11/07 13:53:26;;;;;;;8.23;7.45;;;27.20;61.10;;;;;;4947745;28;20561;-78
2021/11/07 13:55:58;;;;;;;9.25;8.35;;;27.10;61.40;;;;;;4948123;28;20199;-79
2021/11/07 13:58:28;;;;;;;8.48;7.60;;;26.90;62.00;;;;;;4946952;29;20386;-78
2021/11/07 14:00:58;;;;;;;8.10;7.30;;;26.80;61.90;;;;;;4947407;29;20206;-78
2021/11/07 14:03:24;;;;;;;12.88;7.93;;;26.70;62.00;;;;;;4947596;28;20191;-78
2021/11/07 14:06:19;;;;;;;8.32;7.53;;;26.60;62.00;;;;;;4947905;28;20187;-78
2021/11/07 14:08:54;;;;;;;7.40;6.22;;;26.60;61.90;;;;;;4983738;28;20192;-77
2021/11/07 14:11:22;;;;;;;8.27;7.35;;;26.50;62.20;;;;;;5002982;28;20189;-78
2021/11/07 14:13:54;;;;;;;8.52;7.75;;;26.30;62.60;;;;;;5002133;28;20292;-78
2021/11/07 14:16:38;;;;;;;7.97;7.25;;;26.10;62.80;;;;;;4999666;28;20208;-78
2021/11/07 14:19:07;;;;;;;7.90;7.22;;;25.90;63.00;;;;;;5004966;28;20196;-77
2021/11/07 14:21:40;;;;;;;7.75;6.95;;;25.70;63.40;;;;;;5039151;28;20673;-78
2021/11/07 14:24:10;;;;;;;9.68;6.68;;;25.60;63.70;;;;;;5047469;28;20210;-77
2021/11/07 14:32:11;;;;;;;7.07;6.45;;;24.80;64.60;;;;;;5046623;28;20271;-78
2021/11/07 14:34:44;;;;;;;9.73;7.72;;;24.80;64.90;;;;;;5044920;28;20214;-76
2021/11/07 14:37:37;;;;;;;10.90;7.38;;;24.50;65.50;;;;;;5044242;28;20241;-76
2021/11/07 14:40:11;;;;;;;8.25;5.68;;;24.20;66.00;;;;;;5046917;28;20273;-75
2021/11/07 14:50:55;;;;;;;12.00;7.82;;;22.70;68.60;;;;;;5046076;28;20233;-76
2021/11/07 14:53:35;;;;;;;13.45;7.20;;;22.40;69.40;;;;;;5045734;28;20201;-76
2021/11/07 14:58:46;;;;;;;7.18;6.45;;;21.80;70.70;;;;;;5044588;28;20176;-74
2021/11/07 15:04:04;;;;;;;7.85;6.70;;;21.30;71.70;;;;;;5041910;28;20194;-73
2021/11/07 15:06:44;;;;;;;8.13;6.10;;;21.00;72.50;;;;;;5043983;28;20658;-74
2021/11/07 15:09:23;;;;;;;12.27;7.05;;;20.80;72.90;;;;;;5045981;28;20575;-75
2021/11/07 15:15:29;;;;;;;7.40;6.47;;;20.10;74.90;;;;;;5045310;28;20179;-74
2021/11/07 15:18:23;;;;;;;15.63;7.30;;;20.10;75.10;;;;;;5045083;28;20206;-74
2021/11/07 15:21:27;;;;;;;8.20;6.97;;;19.80;75.20;;;;;;5044511;28;20938;-76
2021/11/07 15:23:43;;;;;;;7.30;5.95;;;19.60;75.70;;;;;;5043232;28;20230;-76
2021/11/07 15:26:22;;;;;;;6.97;6.28;;;19.40;75.90;;;;;;5045081;28;20190;-76